In Rescue
 
Open Full Screen Window  High Contrast Mode
Wind Gusting 15 knots
11
November 29, 2022 10:51 AM EST
Weather Information
Wind Direction
  160 °
Wind Speed
  11 kt (13 mph)
Wind Gust
  15 kt (17 mph)
Altimeter
29.97 in
Visibility
10 SM
Temperature
05° C
41° F
Dewpoint
01° C
34° F
Humidity
76%
1hr Rain Fall
00.00 in.
24hr Rain Fall
00.00 in.
Sky Condition
Overcast @ 3,500 ft
VFR

METAR KOSC 291551Z AUTO 16011G15KT 10SM OVC035 05/01 A2997 RMK AO2 T00520013

FAA Disclaimer: The data displayed is for advisory purposes only and is not to be used for flight planning or operations.